Hakodate, Japan
Current Conditions -  °F | °C
As of 12:00 PM on Saturday 25 Oct 2014 (Local Time) from RJCH Reporting Station
Broken Clouds Broken Clouds  
Wind Chill: 64°   Ceiling: 4500
Heat Index: 64°   Visibility: 6mi
Dew Point: 54°   Wind: 17mph
Humidity: 68%   Direction: 230°SW
Pressure: 30.09"   Gusts: NA
Location:  41.8°N, 140.74°E
Report Text: RJCH 250300Z 23015KT 9999 FEW025 BKN045 18/12 Q1019
Loading
Personal Weather Stations






























Interactive Weather Map
Tropical Storm Tracking
New forecast layout! Learn more

10-Day Weather Forecast

Advertisements
Track Severe Weather on mobile